Time;durP1;ratioP1;P1;durP2;ratioP2;P2;SDS_P1;SDS_P2;PMS_P1;PMS_P2;Temp;Humidity;BMP_temperature;BMP_pressure;BME280_temperature;BME280_humidity;BME280_pressure;Samples;Min_cycle;Max_cycle;Signal;HPM_P1;HPM_P2
2022/08/06 00:01:51;;;;;;;5.53;3.42;;;21.30;99.90;;;;;;4822372;29;20062;-50
2022/08/06 00:04:18;;;;;;;5.20;3.22;;;21.20;99.90;;;;;;4822553;29;20074;-51
2022/08/06 00:06:44;;;;;;;4.25;2.88;;;21.20;99.90;;;;;;4822586;29;20030;-49
2022/08/06 00:09:11;;;;;;;3.92;3.50;;;21.10;99.90;;;;;;4822522;29;20035;-50
2022/08/06 00:11:38;;;;;;;6.30;3.72;;;21.10;99.90;;;;;;4822437;29;20034;-50
2022/08/06 00:14:03;;;;;;;4.38;3.78;;;21.10;99.90;;;;;;4820792;29;20746;-52
2022/08/06 00:16:29;;;;;;;6.13;4.00;;;21.00;99.90;;;;;;4822817;29;20091;-50
2022/08/06 00:18:55;;;;;;;6.15;3.92;;;21.00;99.90;;;;;;4820985;29;20038;-51
2022/08/06 00:21:21;;;;;;;4.82;3.53;;;20.90;99.90;;;;;;4822438;29;20039;-49
2022/08/06 00:23:46;;;;;;;6.25;3.60;;;20.90;99.90;;;;;;4822458;29;20444;-50
2022/08/06 00:26:12;;;;;;;9.52;3.97;;;21.00;99.90;;;;;;4820309;29;20041;-52
2022/08/06 00:28:38;;;;;;;5.53;3.53;;;20.90;99.90;;;;;;4822421;29;20026;-49
2022/08/06 00:31:04;;;;;;;7.15;3.67;;;20.90;99.90;;;;;;4822412;29;20479;-50
2022/08/06 00:33:30;;;;;;;8.13;3.60;;;21.00;99.90;;;;;;4822261;29;20041;-51
2022/08/06 00:35:56;;;;;;;3.50;3.03;;;21.00;99.90;;;;;;4822170;29;20038;-50
2022/08/06 00:38:22;;;;;;;3.85;3.55;;;20.90;99.90;;;;;;4822093;29;20034;-50
2022/08/06 00:40:49;;;;;;;5.38;3.75;;;20.90;99.90;;;;;;4822437;29;20414;-51
2022/08/06 00:43:15;;;;;;;8.52;3.85;;;21.00;99.90;;;;;;4822075;29;20037;-51
2022/08/06 00:45:41;;;;;;;8.90;3.83;;;21.00;99.90;;;;;;4822217;29;20087;-51
2022/08/06 00:48:07;;;;;;;3.88;3.45;;;21.00;99.90;;;;;;4822120;29;20026;-51
2022/08/06 00:50:34;;;;;;;6.28;3.47;;;21.00;99.90;;;;;;4822464;29;20026;-50
2022/08/06 00:53:00;;;;;;;10.23;3.65;;;21.00;99.90;;;;;;4822124;29;20087;-50
2022/08/06 00:55:26;;;;;;;4.55;3.42;;;21.00;99.90;;;;;;4822160;29;20030;-52
2022/08/06 00:57:52;;;;;;;4.93;3.35;;;20.90;99.90;;;;;;4821828;29;20118;-50
2022/08/06 01:00:18;;;;;;;5.57;3.65;;;20.80;99.90;;;;;;4822183;29;20117;-52
2022/08/06 01:02:44;;;;;;;6.95;3.85;;;20.80;99.90;;;;;;4822011;29;20087;-50
2022/08/06 01:05:09;;;;;;;8.13;3.58;;;20.80;99.90;;;;;;4820551;29;20463;-51
2022/08/06 01:07:35;;;;;;;6.25;3.65;;;20.90;99.90;;;;;;4814180;29;20395;-51
2022/08/06 01:10:01;;;;;;;9.32;3.13;;;20.90;99.90;;;;;;4824509;29;20095;-50
2022/08/06 01:12:27;;;;;;;7.07;3.20;;;20.90;99.90;;;;;;4824872;29;20053;-51
2022/08/06 01:14:52;;;;;;;9.30;4.35;;;20.80;99.90;;;;;;4825098;29;20069;-49
2022/08/06 01:17:47;;;;;;;5.57;3.60;;;20.80;99.90;;;;;;4824833;29;20043;-50
2022/08/06 01:20:28;;;;;;;5.10;3.80;;;20.80;99.90;;;;;;4807173;29;20437;-51
2022/08/06 01:23:28;;;;;;;3.88;3.53;;;20.80;99.90;;;;;;4816286;29;20217;-49
2022/08/06 01:26:42;;;;;;;7.38;3.60;;;20.80;99.90;;;;;;4823611;29;20557;-49
2022/08/06 01:29:21;;;;;;;6.55;4.13;;;20.70;99.90;;;;;;4818979;29;20065;-50
2022/08/06 01:32:04;;;;;;;11.23;4.22;;;20.70;99.90;;;;;;4814436;29;20059;-50
2022/08/06 01:34:40;;;;;;;6.55;4.47;;;20.70;99.90;;;;;;4816479;29;20038;-50
2022/08/06 01:37:26;;;;;;;5.47;3.72;;;20.60;99.90;;;;;;4816391;29;20034;-51
2022/08/06 01:40:04;;;;;;;10.10;4.28;;;20.60;99.90;;;;;;4816248;29;20048;-52
2022/08/06 01:42:32;;;;;;;7.50;4.05;;;20.60;99.90;;;;;;4818512;29;20043;-51
2022/08/06 01:45:03;;;;;;;5.53;3.67;;;20.60;99.90;;;;;;4817602;29;20360;-51
2022/08/06 01:47:31;;;;;;;6.50;3.92;;;20.60;99.90;;;;;;4817871;29;20549;-51
2022/08/06 01:50:03;;;;;;;5.35;3.63;;;20.60;99.90;;;;;;4814529;29;20118;-52
2022/08/06 01:52:32;;;;;;;4.03;2.95;;;20.60;99.90;;;;;;4816745;29;20030;-50
2022/08/06 01:54:59;;;;;;;5.20;3.70;;;20.60;99.90;;;;;;4818461;29;20052;-50
2022/08/06 01:57:27;;;;;;;4.10;3.65;;;20.60;99.90;;;;;;4818335;29;20030;-49
2022/08/06 01:59:55;;;;;;;8.00;3.95;;;20.60;99.90;;;;;;4818537;29;20037;-49
2022/08/06 02:02:23;;;;;;;8.30;3.90;;;20.60;99.90;;;;;;4815708;29;20034;-52
2022/08/06 02:04:53;;;;;;;8.85;3.55;;;20.60;99.90;;;;;;4820006;29;20404;-51
2022/08/06 02:07:24;;;;;;;7.90;4.30;;;20.50;99.90;;;;;;4818286;29;20018;-50
2022/08/06 02:09:51;;;;;;;9.30;4.03;;;20.50;99.90;;;;;;4817296;29;20034;-50
2022/08/06 02:12:26;;;;;;;7.50;3.92;;;20.50;99.90;;;;;;4816887;29;20031;-51
2022/08/06 02:14:56;;;;;;;6.32;3.72;;;20.50;99.90;;;;;;4817380;29;20030;-49
2022/08/06 02:17:27;;;;;;;6.20;3.58;;;20.50;99.90;;;;;;4821564;29;20498;-52
2022/08/06 02:19:55;;;;;;;7.38;3.60;;;20.50;99.90;;;;;;4823567;29;20026;-51
2022/08/06 02:22:22;;;;;;;5.80;3.60;;;20.50;99.90;;;;;;4823876;29;20042;-50
2022/08/06 02:24:49;;;;;;;6.97;3.75;;;20.50;99.90;;;;;;4823377;29;20413;-50
2022/08/06 02:27:17;;;;;;;8.50;3.75;;;20.40;99.90;;;;;;4823862;29;20031;-49
2022/08/06 02:29:45;;;;;;;4.18;3.53;;;20.50;99.90;;;;;;4823845;29;20030;-51
2022/08/06 02:32:13;;;;;;;6.00;3.47;;;20.50;99.90;;;;;;4823750;29;20486;-51
2022/08/06 02:34:40;;;;;;;5.93;3.88;;;20.50;99.90;;;;;;4823790;29;20050;-49
2022/08/06 02:37:25;;;;;;;4.88;3.60;;;20.50;99.90;;;;;;4823656;29;20042;-50
2022/08/06 02:39:57;;;;;;;6.07;3.40;;;20.50;99.90;;;;;;4823853;29;20038;-51
2022/08/06 02:42:38;;;;;;;4.60;3.80;;;20.40;99.90;;;;;;4823851;29;20126;-51
2022/08/06 02:45:20;;;;;;;6.60;3.45;;;20.40;99.90;;;;;;4823618;29;20036;-50
2022/08/06 02:47:56;;;;;;;4.85;3.05;;;20.40;99.90;;;;;;4823829;29;20097;-50
2022/08/06 02:50:28;;;;;;;3.10;2.70;;;20.40;99.90;;;;;;4823835;29;20030;-50
2022/08/06 02:53:02;;;;;;;5.68;3.28;;;20.30;99.90;;;;;;4823417;29;20038;-51
2022/08/06 02:55:32;;;;;;;4.20;3.25;;;20.40;99.90;;;;;;4823296;29;20034;-50
2022/08/06 02:58:21;;;;;;;6.57;3.10;;;20.40;99.90;;;;;;4823477;29;20461;-51
2022/08/06 03:00:50;;;;;;;3.38;3.08;;;20.40;99.90;;;;;;4823567;29;20113;-50
2022/08/06 03:03:19;;;;;;;5.63;3.05;;;20.40;99.90;;;;;;4823457;29;20352;-53
2022/08/06 03:05:45;;;;;;;7.80;3.70;;;20.40;99.90;;;;;;4823242;29;20037;-50
2022/08/06 03:08:15;;;;;;;4.03;2.95;;;20.40;99.90;;;;;;4822156;29;20117;-51
2022/08/06 03:10:42;;;;;;;7.65;2.92;;;20.40;99.90;;;;;;4823494;29;20077;-50
2022/08/06 03:13:09;;;;;;;8.57;3.58;;;20.20;99.90;;;;;;4822851;29;20043;-54
2022/08/06 03:15:36;;;;;;;5.40;3.50;;;20.10;99.90;;;;;;4823786;29;20034;-49
2022/08/06 03:18:05;;;;;;;7.07;3.28;;;20.10;99.90;;;;;;4822991;29;20065;-49
2022/08/06 03:20:34;;;;;;;3.05;2.85;;;20.10;99.90;;;;;;4823331;29;20045;-51
2022/08/06 03:23:04;;;;;;;6.35;3.17;;;20.20;99.90;;;;;;4823013;29;20077;-52
2022/08/06 03:25:32;;;;;;;5.32;3.28;;;20.20;99.90;;;;;;4821920;29;20034;-51
2022/08/06 03:27:59;;;;;;;4.70;3.10;;;20.20;99.90;;;;;;4822948;29;20030;-49
2022/08/06 03:30:26;;;;;;;4.25;3.28;;;20.20;99.90;;;;;;4822396;29;20037;-50
2022/08/06 03:32:53;;;;;;;7.60;3.63;;;20.20;99.90;;;;;;4822876;29;20048;-50
2022/08/06 03:35:19;;;;;;;5.00;3.17;;;20.10;99.90;;;;;;4823165;29;20087;-50
2022/08/06 03:37:47;;;;;;;5.63;3.47;;;20.10;99.90;;;;;;4822574;29;20037;-50
2022/08/06 03:40:16;;;;;;;4.60;3.55;;;20.10;99.90;;;;;;4823045;29;20492;-49
2022/08/06 03:42:42;;;;;;;4.68;3.35;;;20.10;99.90;;;;;;4822954;29;20041;-50
2022/08/06 03:45:08;;;;;;;4.72;3.50;;;20.10;99.90;;;;;;4821549;29;20125;-50
2022/08/06 03:47:41;;;;;;;4.68;3.75;;;20.10;99.90;;;;;;4823091;29;20019;-51
2022/08/06 03:50:21;;;;;;;4.50;2.97;;;20.10;99.90;;;;;;4822845;29;20064;-50
2022/08/06 03:52:53;;;;;;;7.65;3.88;;;20.00;99.90;;;;;;4822885;29;20041;-50
2022/08/06 03:55:24;;;;;;;4.88;3.30;;;20.00;99.90;;;;;;4821754;29;20034;-51
2022/08/06 03:57:53;;;;;;;7.45;3.83;;;20.00;99.90;;;;;;4822718;29;20035;-50
2022/08/06 04:00:24;;;;;;;7.57;4.32;;;19.90;99.90;;;;;;4822336;29;20026;-50
2022/08/06 04:02:52;;;;;;;6.28;2.95;;;19.90;99.90;;;;;;4821292;29;20057;-50
2022/08/06 04:05:24;;;;;;;4.55;3.17;;;19.90;99.90;;;;;;4822551;29;20065;-49
2022/08/06 04:08:00;;;;;;;5.57;3.42;;;19.90;99.90;;;;;;4821341;29;20023;-53
2022/08/06 04:10:50;;;;;;;3.72;3.30;;;20.00;99.90;;;;;;4821057;29;20139;-51
2022/08/06 04:13:18;;;;;;;7.82;3.78;;;19.90;99.90;;;;;;4822195;29;20428;-50
2022/08/06 04:15:45;;;;;;;6.03;4.15;;;19.80;99.90;;;;;;4822668;29;20030;-49
2022/08/06 04:18:17;;;;;;;8.05;3.60;;;19.80;99.90;;;;;;4822253;29;20113;-51
2022/08/06 04:20:47;;;;;;;3.80;3.43;;;19.70;99.90;;;;;;4822616;29;20121;-50
2022/08/06 04:23:13;;;;;;;5.22;3.13;;;19.80;99.90;;;;;;4820700;29;20463;-50
2022/08/06 04:25:43;;;;;;;9.35;3.90;;;19.80;99.90;;;;;;4821142;29;20034;-50
2022/08/06 04:28:10;;;;;;;7.85;3.47;;;19.80;99.90;;;;;;4820866;29;20031;-50
2022/08/06 04:30:38;;;;;;;8.65;4.53;;;19.90;99.90;;;;;;4821462;29;20031;-50
2022/08/06 04:33:06;;;;;;;7.15;3.50;;;19.90;99.90;;;;;;4820940;29;20034;-50
2022/08/06 04:35:32;;;;;;;3.60;3.25;;;19.90;99.90;;;;;;4821037;29;20427;-49
2022/08/06 04:37:59;;;;;;;4.03;3.25;;;19.90;99.90;;;;;;4821012;29;20550;-50
2022/08/06 04:40:26;;;;;;;10.73;3.90;;;19.90;99.90;;;;;;4821069;29;20030;-49
2022/08/06 04:42:52;;;;;;;10.15;4.10;;;20.00;99.90;;;;;;4821384;29;20563;-50
2022/08/06 04:45:18;;;;;;;3.88;3.53;;;20.00;99.90;;;;;;4824763;29;20041;-50
2022/08/06 04:47:46;;;;;;;5.80;3.72;;;20.00;99.90;;;;;;4823268;29;20117;-51
2022/08/06 04:50:12;;;;;;;7.25;4.05;;;20.00;99.90;;;;;;4824409;29;20522;-50
2022/08/06 04:52:39;;;;;;;6.25;4.75;;;20.00;99.90;;;;;;4823145;29;20066;-50
2022/08/06 04:55:06;;;;;;;4.15;3.20;;;20.10;99.90;;;;;;4824165;29;20026;-50
2022/08/06 04:57:32;;;;;;;5.30;3.38;;;20.20;99.90;;;;;;4824239;29;20034;-49
2022/08/06 04:59:59;;;;;;;6.82;3.83;;;20.30;99.90;;;;;;4822702;29;20122;-50
2022/08/06 05:02:24;;;;;;;4.45;3.10;;;20.40;99.90;;;;;;4824114;29;20542;-51
2022/08/06 05:04:55;;;;;;;5.25;3.75;;;20.50;99.90;;;;;;4824086;29;20475;-51
2022/08/06 05:07:25;;;;;;;7.30;3.30;;;20.60;99.90;;;;;;4824172;29;20495;-49
2022/08/06 05:09:51;;;;;;;7.45;3.85;;;20.60;99.90;;;;;;4817687;29;20401;-52
2022/08/06 05:12:29;;;;;;;5.43;4.07;;;20.60;99.90;;;;;;4823785;29;20090;-49
2022/08/06 05:15:01;;;;;;;4.28;3.88;;;20.70;99.90;;;;;;4823887;29;20053;-50
2022/08/06 05:17:32;;;;;;;7.88;3.75;;;20.80;99.90;;;;;;4823811;29;20027;-49
2022/08/06 05:20:19;;;;;;;11.35;4.45;;;20.70;99.90;;;;;;4823821;29;20031;-49
2022/08/06 05:22:52;;;;;;;5.95;3.92;;;20.70;99.90;;;;;;4823682;29;20030;-49
2022/08/06 05:25:18;;;;;;;8.23;3.85;;;20.60;99.90;;;;;;4823616;29;20530;-51
2022/08/06 05:27:44;;;;;;;5.07;3.65;;;20.70;99.90;;;;;;4812703;29;20392;-49
2022/08/06 05:30:10;;;;;;;7.90;4.28;;;20.80;99.90;;;;;;4808145;29;20113;-50
2022/08/06 05:32:47;;;;;;;7.60;4.13;;;20.80;99.90;;;;;;4824013;29;20423;-51
2022/08/06 05:35:13;;;;;;;8.43;4.28;;;20.80;99.90;;;;;;4823757;29;20125;-50
2022/08/06 05:37:39;;;;;;;13.52;4.10;;;20.80;99.90;;;;;;4823901;29;20446;-54
2022/08/06 05:40:07;;;;;;;45.72;6.55;;;20.80;99.90;;;;;;4823693;29;20030;-50
2022/08/06 05:42:33;;;;;;;13.57;4.75;;;20.80;99.90;;;;;;4822042;29;20118;-50
2022/08/06 05:44:58;;;;;;;8.48;5.13;;;20.70;99.90;;;;;;4823307;29;20508;-50
2022/08/06 05:47:28;;;;;;;9.73;5.15;;;20.60;99.90;;;;;;4823460;29;20083;-49
2022/08/06 05:50:09;;;;;;;9.30;4.88;;;20.70;99.90;;;;;;4823361;29;20026;-49
2022/08/06 05:53:17;;;;;;;11.65;5.57;;;20.80;99.90;;;;;;4823472;29;20037;-50
2022/08/06 05:55:57;;;;;;;10.40;5.28;;;20.70;99.90;;;;;;4822850;29;20027;-50
2022/08/06 05:58:36;;;;;;;8.18;4.60;;;20.80;99.90;;;;;;4809370;29;20054;-50
2022/08/06 06:01:04;;;;;;;9.32;4.95;;;20.70;99.90;;;;;;4823065;29;20091;-50
2022/08/06 06:03:31;;;;;;;5.95;4.47;;;20.80;99.90;;;;;;4822079;29;20129;-50
2022/08/06 06:05:59;;;;;;;5.20;4.60;;;20.90;99.90;;;;;;4823143;29;20105;-50
2022/08/06 06:08:25;;;;;;;4.85;4.05;;;20.90;99.90;;;;;;4821789;29;20086;-49
2022/08/06 06:10:52;;;;;;;8.43;4.68;;;20.90;99.90;;;;;;4821491;29;20030;-52
2022/08/06 06:13:19;;;;;;;9.85;4.65;;;21.00;99.90;;;;;;4822670;29;20107;-48
2022/08/06 06:15:50;;;;;;;7.05;4.57;;;20.90;99.90;;;;;;4823067;29;20075;-51
2022/08/06 06:18:57;;;;;;;7.68;5.15;;;20.90;99.90;;;;;;4822778;29;20033;-49
2022/08/06 06:21:31;;;;;;;6.05;4.85;;;21.00;99.90;;;;;;4823296;29;20360;-50
2022/08/06 06:24:28;;;;;;;5.63;4.50;;;21.10;99.90;;;;;;4822613;29;20030;-50
2022/08/06 06:27:15;;;;;;;6.65;5.20;;;21.10;99.90;;;;;;4822852;29;20038;-51
2022/08/06 06:29:50;;;;;;;4.10;3.70;;;21.20;99.90;;;;;;4805030;29;20050;-50
2022/08/06 06:32:34;;;;;;;6.25;3.67;;;21.20;99.90;;;;;;4819787;29;20450;-50
2022/08/06 06:35:09;;;;;;;5.18;3.35;;;21.20;99.90;;;;;;4822713;29;20535;-50
2022/08/06 06:37:51;;;;;;;4.78;3.72;;;21.20;99.90;;;;;;4822753;29;20069;-51
2022/08/06 06:40:30;;;;;;;5.38;3.97;;;21.20;99.90;;;;;;4822806;29;20023;-50
2022/08/06 06:43:29;;;;;;;4.75;3.35;;;21.30;99.90;;;;;;4822337;29;20046;-52
2022/08/06 06:45:59;;;;;;;3.25;2.97;;;21.40;99.90;;;;;;4822288;29;20109;-50
2022/08/06 06:48:33;;;;;;;5.72;3.08;;;21.50;99.90;;;;;;4821033;29;20444;-50
2022/08/06 06:51:03;;;;;;;4.95;3.08;;;21.60;99.90;;;;;;4808228;29;20430;-50
2022/08/06 06:53:34;;;;;;;5.43;3.30;;;21.60;99.90;;;;;;4822414;29;20034;-49
2022/08/06 06:56:01;;;;;;;5.90;2.92;;;21.40;99.90;;;;;;4822166;29;20075;-49
2022/08/06 06:58:40;;;;;;;4.18;3.70;;;21.40;99.90;;;;;;4822224;29;20613;-52
2022/08/06 07:01:09;;;;;;;7.90;3.05;;;21.40;99.90;;;;;;4814967;29;20118;-50
2022/08/06 07:03:38;;;;;;;4.43;3.60;;;21.50;99.90;;;;;;4814742;29;20022;-49
2022/08/06 07:06:07;;;;;;;6.70;3.22;;;21.50;99.90;;;;;;4815415;29;20038;-52
2022/08/06 07:08:37;;;;;;;5.68;3.10;;;21.50;99.90;;;;;;4816170;29;20026;-50
2022/08/06 07:11:05;;;;;;;6.35;3.10;;;21.60;99.90;;;;;;4812874;29;20034;-51
2022/08/06 07:13:31;;;;;;;3.35;2.80;;;21.80;99.90;;;;;;4815947;29;20114;-51
2022/08/06 07:15:58;;;;;;;9.88;3.78;;;21.90;99.90;;;;;;4814781;29;20031;-52
2022/08/06 07:18:26;;;;;;;3.72;3.20;;;22.00;99.90;;;;;;4816912;29;20041;-50
2022/08/06 07:20:53;;;;;;;3.78;3.25;;;22.10;99.90;;;;;;4813578;29;20117;-50
2022/08/06 07:23:20;;;;;;;3.80;3.22;;;21.90;99.90;;;;;;4815390;29;20023;-50
2022/08/06 07:25:48;;;;;;;5.75;4.03;;;22.00;99.90;;;;;;4815941;29;20611;-50
2022/08/06 07:28:15;;;;;;;5.28;3.47;;;22.10;99.90;;;;;;4817212;29;20433;-49
2022/08/06 07:30:42;;;;;;;6.25;3.45;;;22.10;99.90;;;;;;4822093;29;20405;-54
2022/08/06 07:33:09;;;;;;;5.65;3.70;;;22.20;99.90;;;;;;4821839;29;20045;-50
2022/08/06 07:35:39;;;;;;;11.90;3.72;;;22.40;99.90;;;;;;4822355;29;20168;-49
2022/08/06 07:38:08;;;;;;;4.43;3.95;;;22.50;99.90;;;;;;4817632;29;20428;-51
2022/08/06 07:40:47;;;;;;;4.88;3.75;;;22.50;99.90;;;;;;4820216;29;20046;-51
2022/08/06 07:43:25;;;;;;;7.25;4.10;;;22.60;99.90;;;;;;4809206;29;20122;-50
2022/08/06 07:45:55;;;;;;;4.95;3.53;;;22.50;99.90;;;;;;4814916;29;20038;-51
2022/08/06 07:48:27;;;;;;;5.18;3.50;;;22.60;99.90;;;;;;4813858;29;20038;-52
2022/08/06 07:50:54;;;;;;;6.53;3.55;;;22.90;99.90;;;;;;4812177;29;20030;-54
2022/08/06 07:53:21;;;;;;;4.32;3.65;;;23.10;99.90;;;;;;4815373;29;20093;-51
2022/08/06 07:55:47;;;;;;;8.45;4.13;;;23.20;99.90;;;;;;4814641;29;20030;-50
2022/08/06 07:58:14;;;;;;;6.88;4.05;;;22.90;99.90;;;;;;4813191;29;20525;-51
2022/08/06 08:00:41;;;;;;;4.03;3.60;;;22.70;99.90;;;;;;4821122;29;20095;-48
2022/08/06 08:08:38;;;;;;;5.30;3.63;;;22.90;99.90;;;;;;4820980;29;20034;-49
2022/08/06 08:11:06;;;;;;;5.40;3.88;;;23.10;99.90;;;;;;4821356;29;20031;-53
2022/08/06 08:13:33;;;;;;;6.60;4.78;;;23.30;99.90;;;;;;4820954;29;20070;-50
2022/08/06 08:16:00;;;;;;;4.78;3.72;;;23.30;99.90;;;;;;4821120;29;20208;-50
2022/08/06 08:18:32;;;;;;;7.32;3.40;;;23.00;99.90;;;;;;4825140;29;20045;-48
2022/08/06 08:20:59;;;;;;;7.78;4.13;;;22.90;99.90;;;;;;4825321;29;20030;-49
2022/08/06 08:23:28;;;;;;;8.95;4.10;;;22.90;99.90;;;;;;4824208;29;20042;-51
2022/08/06 08:25:59;;;;;;;5.03;4.20;;;22.90;99.90;;;;;;4825431;29;20041;-50
2022/08/06 08:28:25;;;;;;;6.72;3.88;;;22.80;99.90;;;;;;4825190;29;20042;-51
2022/08/06 08:30:51;;;;;;;6.95;4.60;;;23.00;99.90;;;;;;4825450;29;20047;-50
2022/08/06 08:33:20;;;;;;;5.80;4.85;;;23.00;99.90;;;;;;4826587;29;20038;-50
2022/08/06 08:35:47;;;;;;;7.93;5.45;;;22.70;99.90;;;;;;4826882;29;20034;-51
2022/08/06 08:38:13;;;;;;;5.07;4.32;;;22.80;99.90;;;;;;4826811;29;20035;-49
2022/08/06 08:40:39;;;;;;;9.75;6.38;;;22.80;99.90;;;;;;4827209;29;20030;-49
2022/08/06 08:43:07;;;;;;;7.63;5.47;;;22.90;99.90;;;;;;4826822;29;20061;-51
2022/08/06 08:45:35;;;;;;;6.55;5.00;;;22.70;99.90;;;;;;4826959;29;20608;-49
2022/08/06 08:48:01;;;;;;;6.80;5.97;;;22.80;99.90;;;;;;4826897;29;20038;-52
2022/08/06 08:50:31;;;;;;;6.55;5.85;;;22.70;99.90;;;;;;4827077;29;20540;-51
2022/08/06 08:53:12;;;;;;;6.40;5.50;;;22.60;99.90;;;;;;4826881;29;20035;-49
2022/08/06 08:55:39;;;;;;;7.75;5.90;;;22.40;99.90;;;;;;4827431;29;20034;-50
2022/08/06 08:58:06;;;;;;;8.32;6.43;;;22.30;99.90;;;;;;4826942;29;20476;-50
2022/08/06 09:00:32;;;;;;;10.25;6.65;;;22.30;99.90;;;;;;4827029;29;20248;-50
2022/08/06 09:02:58;;;;;;;8.18;6.22;;;22.20;99.90;;;;;;4826663;29;20057;-52
2022/08/06 09:05:24;;;;;;;12.20;6.78;;;22.10;99.90;;;;;;4826986;29;20103;-50
2022/08/06 09:07:51;;;;;;;6.95;6.25;;;22.00;99.90;;;;;;4825988;29;20037;-49
2022/08/06 09:10:17;;;;;;;9.75;7.03;;;22.10;99.90;;;;;;4823358;29;20504;-54
2022/08/06 09:12:43;;;;;;;10.52;8.27;;;22.10;99.90;;;;;;4821287;29;20036;-66
2022/08/06 09:15:09;;;;;;;8.45;7.20;;;22.20;99.90;;;;;;4817405;29;20038;-64
2022/08/06 09:17:35;;;;;;;15.63;8.75;;;22.50;99.90;;;;;;4821612;29;20060;-64
2022/08/06 09:20:03;;;;;;;13.20;8.73;;;22.30;99.90;;;;;;4819898;29;20394;-70
2022/08/06 09:22:28;;;;;;;14.18;9.07;;;22.30;99.90;;;;;;4826802;29;20534;-70
2022/08/06 09:24:54;;;;;;;19.25;9.55;;;22.20;99.90;;;;;;4822260;29;20034;-65
2022/08/06 09:27:20;;;;;;;15.15;10.52;;;22.20;99.90;;;;;;4817715;29;20427;-49
2022/08/06 09:29:57;;;;;;;27.52;11.10;;;21.80;99.90;;;;;;4818679;29;20030;-53
2022/08/06 09:32:39;;;;;;;15.73;9.48;;;21.90;99.90;;;;;;4816598;29;20026;-67
2022/08/06 09:35:25;;;;;;;12.93;9.68;;;21.90;99.90;;;;;;4816198;29;20027;-51
2022/08/06 09:38:01;;;;;;;15.18;10.10;;;21.90;99.90;;;;;;4823695;29;20034;-51
2022/08/06 09:40:27;;;;;;;18.95;10.10;;;22.00;99.90;;;;;;4823835;29;20095;-50
2022/08/06 09:42:52;;;;;;;18.75;10.60;;;21.90;99.90;;;;;;4822826;29;20034;-50
2022/08/06 09:45:23;;;;;;;16.95;9.77;;;21.60;99.90;;;;;;4810483;29;20035;-54
2022/08/06 09:48:07;;;;;;;13.63;5.35;;;21.60;99.90;;;;;;4798500;29;20326;-55
2022/08/06 09:50:39;;;;;;;4.20;3.05;;;21.30;99.90;;;;;;4812075;29;20031;-49
2022/08/06 09:53:05;;;;;;;6.60;2.30;;;20.70;99.90;;;;;;4803791;29;20119;-49
2022/08/06 09:55:32;;;;;;;2.38;2.13;;;20.40;99.90;;;;;;4796255;29;20181;-53
2022/08/06 09:57:58;;;;;;;1.95;1.85;;;20.20;99.90;;;;;;4796865;29;20031;-49
2022/08/06 10:00:35;;;;;;;4.80;2.30;;;20.00;99.90;;;;;;4795453;29;20034;-50
2022/08/06 10:03:03;;;;;;;3.50;3.20;;;20.10;99.90;;;;;;4797231;29;20035;-50
2022/08/06 10:05:29;;;;;;;3.33;2.85;;;20.20;99.90;;;;;;4808199;29;20027;-50
2022/08/06 10:08:16;;;;;;;4.28;3.00;;;20.00;99.90;;;;;;4794585;29;20035;-50
2022/08/06 10:10:50;;;;;;;6.00;2.60;;;19.90;99.90;;;;;;4801519;29;22658;-53
2022/08/06 10:13:26;;;;;;;2.25;1.27;;;19.90;99.90;;;;;;4793951;29;20169;-54
2022/08/06 10:15:53;;;;;;;2.78;1.02;;;19.70;99.90;;;;;;4794030;29;20590;-50
2022/08/06 10:18:49;;;;;;;2.72;0.80;;;19.50;99.90;;;;;;4794993;29;20121;-50
2022/08/06 10:21:22;;;;;;;1.95;1.42;;;19.10;99.90;;;;;;4797015;29;22286;-49
2022/08/06 10:23:50;;;;;;;1.40;1.30;;;19.00;99.90;;;;;;4800593;29;20039;-57
2022/08/06 10:26:35;;;;;;;2.25;1.40;;;18.80;99.90;;;;;;4796959;29;20035;-52
2022/08/06 10:29:07;;;;;;;2.15;1.40;;;18.80;99.90;;;;;;4801467;29;20360;-49
2022/08/06 10:31:35;;;;;;;4.13;1.52;;;18.70;99.90;;;;;;4804844;29;20125;-51
2022/08/06 10:34:04;;;;;;;1.60;1.50;;;18.70;99.90;;;;;;4795539;29;20041;-49
2022/08/06 10:36:54;;;;;;;3.75;2.20;;;18.60;99.90;;;;;;4793706;29;20903;-55
2022/08/06 10:39:27;;;;;;;3.80;2.60;;;18.60;99.90;;;;;;4795814;29;20041;-64
2022/08/06 10:41:56;;;;;;;2.50;2.05;;;18.70;99.90;;;;;;4804554;29;20107;-53
2022/08/06 10:44:25;;;;;;;2.67;2.20;;;18.80;99.90;;;;;;4804667;29;20027;-49
2022/08/06 10:46:52;;;;;;;2.22;2.05;;;18.90;99.90;;;;;;4804497;29;20110;-51
2022/08/06 10:49:20;;;;;;;2.72;2.50;;;18.90;99.90;;;;;;4804723;29;20087;-50
2022/08/06 10:51:50;;;;;;;2.90;2.70;;;19.10;99.90;;;;;;4804426;29;20544;-49
2022/08/06 10:54:16;;;;;;;5.50;2.67;;;19.10;99.90;;;;;;4810261;29;20760;-48
2022/08/06 10:56:42;;;;;;;5.35;2.88;;;19.20;99.90;;;;;;4822989;29;20054;-47
2022/08/06 10:59:11;;;;;;;4.03;2.88;;;19.40;99.90;;;;;;4821495;29;20034;-49
2022/08/06 11:02:03;;;;;;;2.75;2.55;;;19.50;99.90;;;;;;4822962;29;20031;-49
2022/08/06 11:04:56;;;;;;;2.97;2.60;;;19.50;99.90;;;;;;4822605;29;20507;-48
2022/08/06 11:07:35;;;;;;;3.60;3.05;;;19.40;99.90;;;;;;4822745;29;20392;-49
2022/08/06 11:10:46;;;;;;;2.92;2.63;;;19.60;99.90;;;;;;4822399;29;20027;-52
2022/08/06 11:13:23;;;;;;;3.08;2.55;;;19.70;99.90;;;;;;4813660;29;20627;-49
2022/08/06 11:15:51;;;;;;;4.57;2.90;;;19.60;99.90;;;;;;4822688;29;20034;-49
2022/08/06 11:18:18;;;;;;;3.55;2.40;;;19.70;99.90;;;;;;4822757;29;20030;-52
2022/08/06 11:20:46;;;;;;;3.28;2.95;;;19.60;99.90;;;;;;4822198;29;20030;-50
2022/08/06 11:23:11;;;;;;;3.08;2.78;;;19.40;99.90;;;;;;4822454;29;20563;-48
2022/08/06 11:25:41;;;;;;;4.50;3.20;;;19.30;99.90;;;;;;4823217;29;20026;-54
2022/08/06 11:28:15;;;;;;;3.72;3.20;;;19.30;99.90;;;;;;4823069;29;20033;-51
2022/08/06 11:30:53;;;;;;;3.67;2.95;;;19.40;99.90;;;;;;4823109;29;20050;-50
2022/08/06 11:33:22;;;;;;;7.05;3.05;;;19.50;99.90;;;;;;4822507;29;20098;-51
2022/08/06 11:35:49;;;;;;;5.63;2.90;;;19.30;99.90;;;;;;4792624;29;20077;-54
2022/08/06 11:38:46;;;;;;;4.93;3.35;;;19.30;99.90;;;;;;4793462;29;20078;-53
2022/08/06 11:41:25;;;;;;;2.65;2.45;;;19.30;99.90;;;;;;4794448;29;20467;-52
2022/08/06 11:43:51;;;;;;;3.67;2.90;;;19.30;99.90;;;;;;4794710;29;20042;-53
2022/08/06 11:46:37;;;;;;;6.82;2.75;;;19.50;99.90;;;;;;4796510;29;20027;-48
2022/08/06 11:49:03;;;;;;;4.03;3.25;;;19.40;99.90;;;;;;4795239;29;20066;-55
2022/08/06 11:51:40;;;;;;;5.00;3.78;;;19.30;99.90;;;;;;4793148;29;22423;-55
2022/08/06 11:54:28;;;;;;;5.18;2.80;;;19.20;99.90;;;;;;4794032;29;20050;-51
2022/08/06 11:57:06;;;;;;;9.45;3.55;;;19.40;99.90;;;;;;4794681;29;20069;-51
2022/08/06 11:59:34;;;;;;;3.15;2.85;;;19.40;99.90;;;;;;4793740;29;20107;-52
2022/08/06 12:02:05;;;;;;;3.70;3.13;;;19.40;99.90;;;;;;4793720;29;20647;-50
2022/08/06 12:04:38;;;;;;;4.40;3.00;;;19.30;99.90;;;;;;4791849;29;20144;-50
2022/08/06 12:07:24;;;;;;;4.25;3.30;;;19.20;99.90;;;;;;4795512;29;20035;-49
2022/08/06 12:10:07;;;;;;;3.60;2.85;;;19.30;99.90;;;;;;4793408;29;20026;-51
2022/08/06 12:12:38;;;;;;;3.90;3.50;;;19.30;99.90;;;;;;4792799;29;20082;-49
2022/08/06 12:15:28;;;;;;;3.47;3.17;;;19.40;99.90;;;;;;4791951;29;20141;-50
2022/08/06 12:17:57;;;;;;;5.97;3.40;;;19.40;99.90;;;;;;4792510;29;20531;-49
2022/08/06 12:20:39;;;;;;;6.30;3.78;;;19.30;99.90;;;;;;4793979;29;20067;-52
2022/08/06 12:23:10;;;;;;;10.95;3.67;;;19.30;99.90;;;;;;4792157;29;20039;-51
2022/08/06 12:25:38;;;;;;;4.43;3.55;;;19.30;99.90;;;;;;4793592;29;20039;-49
2022/08/06 12:28:09;;;;;;;8.75;3.58;;;19.30;99.90;;;;;;4792833;29;20483;-52
2022/08/06 12:30:44;;;;;;;3.70;3.17;;;19.20;99.90;;;;;;4793880;29;20034;-49
2022/08/06 12:33:10;;;;;;;4.70;3.55;;;19.20;99.90;;;;;;4792641;29;20087;-50
2022/08/06 12:35:47;;;;;;;6.25;4.15;;;19.10;99.90;;;;;;4794052;29;20480;-51
2022/08/06 12:38:13;;;;;;;11.38;3.83;;;19.00;99.90;;;;;;4793712;29;20038;-51
2022/08/06 12:40:38;;;;;;;3.60;3.30;;;18.90;99.90;;;;;;4792063;29;20046;-52
2022/08/06 12:43:04;;;;;;;5.72;3.88;;;18.90;99.90;;;;;;4793606;29;20087;-54
2022/08/06 12:45:32;;;;;;;4.85;3.60;;;18.90;99.90;;;;;;4792180;29;20103;-55
2022/08/06 12:48:09;;;;;;;6.32;3.45;;;19.00;99.90;;;;;;4792589;29;20027;-51
2022/08/06 12:50:40;;;;;;;4.95;3.83;;;19.10;99.90;;;;;;4803301;29;20441;-51
2022/08/06 12:53:07;;;;;;;3.92;3.50;;;19.00;99.90;;;;;;4792700;29;20658;-50
2022/08/06 12:55:43;;;;;;;6.25;3.90;;;18.80;99.90;;;;;;4792519;29;20042;-49
2022/08/06 12:58:11;;;;;;;7.63;4.00;;;18.90;99.90;;;;;;4792449;29;20126;-49
2022/08/06 13:00:38;;;;;;;4.10;3.70;;;18.90;99.90;;;;;;4793707;29;20135;-52
2022/08/06 13:03:06;;;;;;;6.45;3.30;;;19.00;99.90;;;;;;4794639;29;20059;-52
2022/08/06 13:05:34;;;;;;;4.55;3.35;;;19.20;99.90;;;;;;4796628;29;20047;-51
2022/08/06 13:08:01;;;;;;;7.72;3.85;;;19.30;99.90;;;;;;4803717;29;20092;-53
2022/08/06 13:10:35;;;;;;;5.38;3.63;;;19.30;99.90;;;;;;4805104;29;20030;-50
2022/08/06 13:13:04;;;;;;;4.10;3.70;;;19.20;99.90;;;;;;4806055;29;20046;-52